createdAt,value
2023-04-14T00:00:49.080Z,7.60
2023-04-14T00:03:18.063Z,13.05
2023-04-14T00:05:46.361Z,5.03
2023-04-14T00:08:14.456Z,3.97
2023-04-14T00:10:42.504Z,3.78
2023-04-14T00:13:12.036Z,4.82
2023-04-14T00:15:41.482Z,5.57
2023-04-14T00:18:09.461Z,8.18
2023-04-14T00:20:37.430Z,6.03
2023-04-14T00:23:05.435Z,5.13
2023-04-14T00:25:33.401Z,6.18
2023-04-14T00:28:01.386Z,6.35
2023-04-14T00:30:31.054Z,3.35
2023-04-14T00:32:59.079Z,5.07
2023-04-14T00:35:27.217Z,4.78
2023-04-14T00:37:56.640Z,3.85
2023-04-14T00:40:24.738Z,5.97
2023-04-14T00:42:52.808Z,4.03
2023-04-14T00:45:21.076Z,10.57
2023-04-14T00:47:51.092Z,5.57
2023-04-14T00:50:20.651Z,3.97
2023-04-14T00:52:50.602Z,5.50
2023-04-14T00:55:20.552Z,5.22
2023-04-14T00:57:49.076Z,5.47
2023-04-14T01:00:18.018Z,4.60
2023-04-14T01:02:46.575Z,6.05
2023-04-14T01:05:16.373Z,4.63
2023-04-14T01:07:45.200Z,5.43
2023-04-14T01:10:13.566Z,4.07
2023-04-14T01:12:59.729Z,5.93
2023-04-14T01:15:35.572Z,6.75
2023-04-14T01:18:11.570Z,3.90
2023-04-14T01:20:44.437Z,8.05
2023-04-14T01:23:18.769Z,4.03
2023-04-14T01:26:14.969Z,5.60
2023-04-14T01:29:29.696Z,5.82
2023-04-14T01:32:03.311Z,3.13
2023-04-14T01:34:37.681Z,6.85
2023-04-14T01:37:09.664Z,5.20
2023-04-14T01:39:42.569Z,4.45
2023-04-14T01:42:16.110Z,3.95
2023-04-14T01:44:45.313Z,4.68
2023-04-14T01:47:18.768Z,4.30
2023-04-14T01:49:48.800Z,4.85
2023-04-14T01:52:18.259Z,5.78
2023-04-14T01:54:49.833Z,5.93
2023-04-14T01:57:22.772Z,4.57
2023-04-14T01:59:55.669Z,9.88
2023-04-14T02:02:27.155Z,3.72
2023-04-14T02:04:57.519Z,4.78
2023-04-14T02:07:27.084Z,4.43
2023-04-14T02:09:57.916Z,4.80
2023-04-14T02:12:27.886Z,6.07
2023-04-14T02:14:56.497Z,6.68
2023-04-14T02:17:26.394Z,6.20
2023-04-14T02:19:55.127Z,6.30
2023-04-14T02:22:23.273Z,5.68
2023-04-14T02:24:51.406Z,6.10
2023-04-14T02:27:26.590Z,3.45
2023-04-14T02:29:57.441Z,6.70
2023-04-14T02:32:31.187Z,5.38
2023-04-14T02:35:06.075Z,5.30
2023-04-14T02:37:40.443Z,3.13
2023-04-14T02:40:14.016Z,5.03
2023-04-14T02:42:44.625Z,3.72
2023-04-14T02:45:17.448Z,5.78
2023-04-14T02:47:51.495Z,3.20
2023-04-14T02:50:20.592Z,4.50
2023-04-14T02:53:01.675Z,5.00
2023-04-14T02:55:36.699Z,8.23
2023-04-14T02:58:05.373Z,5.20
2023-04-14T03:00:39.334Z,4.38
2023-04-14T03:03:09.446Z,5.68
2023-04-14T03:05:40.079Z,4.03
2023-04-14T03:08:12.107Z,5.75
2023-04-14T03:10:46.142Z,4.35
2023-04-14T03:13:16.700Z,6.43
2023-04-14T03:15:46.869Z,6.90
2023-04-14T03:18:17.759Z,6.28
2023-04-14T03:20:47.340Z,3.67
2023-04-14T03:23:19.560Z,4.70
2023-04-14T03:25:57.270Z,3.92
2023-04-14T03:28:31.068Z,6.35
2023-04-14T03:31:03.801Z,4.45
2023-04-14T03:33:56.492Z,3.80
2023-04-14T03:36:32.222Z,5.25
2023-04-14T03:39:03.394Z,3.45
2023-04-14T03:41:37.828Z,4.72
2023-04-14T03:44:15.559Z,7.57
2023-04-14T03:46:46.782Z,4.82
2023-04-14T03:49:20.150Z,6.85
2023-04-14T03:51:52.455Z,3.90
2023-04-14T03:54:24.112Z,6.30
2023-04-14T03:56:56.828Z,3.30
2023-04-14T03:59:28.621Z,5.18
2023-04-14T04:01:58.222Z,5.00
2023-04-14T04:04:28.327Z,4.22
2023-04-14T04:06:58.779Z,4.70
2023-04-14T04:09:29.846Z,5.40
2023-04-14T04:11:59.970Z,5.22
2023-04-14T04:14:31.164Z,6.65
2023-04-14T04:17:03.344Z,2.92
2023-04-14T04:19:35.071Z,4.95
2023-04-14T04:22:04.783Z,5.93
2023-04-14T04:24:40.272Z,4.30
2023-04-14T04:27:26.577Z,5.43
2023-04-14T04:29:58.609Z,6.32
2023-04-14T04:32:27.337Z,4.13
2023-04-14T04:34:58.631Z,5.53
2023-04-14T04:37:29.030Z,5.05
2023-04-14T04:39:59.009Z,3.33
2023-04-14T04:42:28.073Z,7.03
2023-04-14T04:44:57.241Z,5.80
2023-04-14T04:47:25.646Z,5.03
2023-04-14T04:49:53.575Z,4.15
2023-04-14T04:52:23.006Z,5.00
2023-04-14T04:54:52.583Z,8.48
2023-04-14T04:57:21.192Z,4.72
2023-04-14T04:59:49.177Z,4.18
2023-04-14T05:02:17.559Z,4.22
2023-04-14T05:04:45.562Z,2.70
2023-04-14T05:07:13.570Z,3.33
2023-04-14T05:09:43.040Z,6.13
2023-04-14T05:12:11.122Z,4.63
2023-04-14T05:14:39.290Z,4.78
2023-04-14T05:17:07.352Z,5.10
2023-04-14T05:19:35.653Z,3.97
2023-04-14T05:22:03.609Z,7.68
2023-04-14T05:24:31.494Z,3.53
2023-04-14T05:27:13.897Z,6.10
2023-04-14T05:29:43.030Z,3.85
2023-04-14T05:32:12.912Z,9.70
2023-04-14T05:34:40.996Z,3.72
2023-04-14T05:37:09.075Z,10.10
2023-04-14T05:39:37.197Z,5.72
2023-04-14T05:42:06.714Z,3.05
2023-04-14T05:44:34.763Z,4.32
2023-04-14T05:47:02.805Z,4.13
2023-04-14T05:49:31.148Z,3.88
2023-04-14T05:51:59.221Z,3.95
2023-04-14T05:54:27.150Z,2.60
2023-04-14T05:56:56.421Z,4.10
2023-04-14T05:59:25.962Z,3.08
2023-04-14T06:01:54.088Z,1.90
2023-04-14T06:04:22.380Z,7.22
2023-04-14T06:06:50.561Z,7.20
2023-04-14T06:09:18.870Z,2.25
2023-04-14T06:11:46.891Z,5.22
2023-04-14T06:14:14.957Z,7.47
2023-04-14T06:16:44.328Z,3.58
2023-04-14T06:19:12.272Z,2.60
2023-04-14T06:21:40.326Z,4.50
2023-04-14T06:24:08.755Z,8.48
2023-04-14T06:26:36.873Z,6.03
2023-04-14T06:29:07.435Z,4.00
2023-04-14T06:31:35.728Z,4.57
2023-04-14T06:34:05.199Z,9.52
2023-04-14T06:36:33.315Z,5.88
2023-04-14T06:39:02.107Z,4.88
2023-04-14T06:41:30.421Z,5.47
2023-04-14T06:43:58.531Z,2.20
2023-04-14T06:46:26.675Z,2.55
2023-04-14T06:48:54.727Z,4.88
2023-04-14T06:51:24.097Z,5.85
2023-04-14T06:53:52.390Z,4.82
2023-04-14T06:56:20.732Z,13.07
2023-04-14T06:58:48.778Z,38.67
2023-04-14T07:01:16.980Z,58.97
2023-04-14T07:03:45.532Z,96.70
2023-04-14T07:06:17.278Z,195.00
2023-04-14T07:08:46.873Z,693.30
2023-04-14T07:11:14.965Z,753.53
2023-04-14T07:13:43.053Z,560.88
2023-04-14T07:16:11.352Z,730.25
2023-04-14T07:18:39.407Z,593.72
2023-04-14T07:21:07.515Z,397.88
2023-04-14T07:23:35.483Z,336.60
2023-04-14T07:26:04.926Z,276.45
2023-04-14T07:28:33.477Z,255.07
2023-04-14T07:31:08.936Z,209.82
2023-04-14T07:33:37.134Z,196.48
2023-04-14T07:36:07.289Z,210.20
2023-04-14T07:38:35.560Z,233.43
2023-04-14T07:41:07.001Z,170.00
2023-04-14T07:43:36.018Z,150.93
2023-04-14T07:46:05.656Z,137.40
2023-04-14T07:48:34.798Z,128.43
2023-04-14T07:51:03.155Z,106.15
2023-04-14T07:53:31.697Z,81.45
2023-04-14T07:55:59.924Z,85.80
2023-04-14T07:58:29.888Z,79.35
2023-04-14T08:00:58.359Z,84.43
2023-04-14T08:03:26.671Z,88.43
2023-04-14T08:05:55.027Z,69.93
2023-04-14T08:08:23.174Z,67.90
2023-04-14T08:10:51.154Z,63.42
2023-04-14T08:13:19.220Z,58.30
2023-04-14T08:15:48.791Z,52.67
2023-04-14T08:18:16.784Z,42.97
2023-04-14T08:20:44.820Z,41.08
2023-04-14T08:23:12.881Z,38.50
2023-04-14T08:25:40.850Z,42.00
2023-04-14T08:28:08.896Z,37.67
2023-04-14T08:30:37.133Z,34.08
2023-04-14T08:33:07.046Z,28.55
2023-04-14T08:35:41.988Z,26.40
2023-04-14T08:38:11.299Z,27.42
2023-04-14T08:40:40.935Z,23.00
2023-04-14T08:43:09.406Z,18.20
2023-04-14T08:45:37.738Z,15.73
2023-04-14T08:48:07.281Z,30.75
2023-04-14T08:50:38.820Z,15.77
2023-04-14T08:53:10.036Z,16.92
2023-04-14T08:55:40.428Z,18.73
2023-04-14T08:58:10.548Z,22.42
2023-04-14T09:00:40.148Z,16.65
2023-04-14T09:03:10.066Z,18.50
2023-04-14T09:05:38.673Z,13.82
2023-04-14T09:08:06.791Z,16.52
2023-04-14T09:10:36.779Z,12.48
2023-04-14T09:13:06.667Z,18.15
2023-04-14T09:15:34.769Z,12.55
2023-04-14T09:18:03.378Z,12.10
2023-04-14T09:20:37.689Z,10.88
2023-04-14T09:23:10.020Z,10.55
2023-04-14T09:25:39.578Z,12.23
2023-04-14T09:28:07.969Z,12.55
2023-04-14T09:30:36.338Z,11.55
2023-04-14T09:33:06.409Z,10.95
2023-04-14T09:35:47.380Z,10.90
2023-04-14T09:38:16.740Z,10.02
2023-04-14T09:40:45.389Z,9.25
2023-04-14T09:43:26.974Z,7.88
2023-04-14T09:45:56.286Z,12.30
2023-04-14T09:48:24.448Z,8.35
2023-04-14T09:51:06.646Z,10.93
2023-04-14T09:53:35.931Z,6.03
2023-04-14T09:56:06.121Z,12.27
2023-04-14T09:58:35.248Z,8.40
2023-04-14T10:01:04.627Z,5.90
2023-04-14T10:03:40.291Z,8.30
2023-04-14T10:06:10.800Z,6.05
2023-04-14T10:08:41.044Z,5.53
2023-04-14T10:11:16.986Z,8.63
2023-04-14T10:13:45.625Z,12.75
2023-04-14T10:16:13.624Z,9.63
2023-04-14T10:18:41.650Z,7.97
2023-04-14T10:21:11.731Z,5.50
2023-04-14T10:23:41.211Z,9.50
2023-04-14T10:26:11.372Z,8.60
2023-04-14T10:28:41.927Z,5.97
2023-04-14T10:31:13.804Z,8.02
2023-04-14T10:33:42.262Z,8.93
2023-04-14T10:36:11.668Z,6.55
2023-04-14T10:38:42.266Z,6.90
2023-04-14T10:41:11.221Z,5.35
2023-04-14T10:43:39.802Z,4.63
2023-04-14T10:46:09.745Z,6.80
2023-04-14T10:48:39.710Z,3.83
2023-04-14T10:51:09.831Z,5.15
2023-04-14T10:53:46.305Z,5.55
2023-04-14T10:56:14.655Z,7.68
2023-04-14T10:58:42.887Z,7.85
2023-04-14T11:01:27.278Z,6.38
2023-04-14T11:03:56.339Z,5.38
2023-04-14T11:06:53.583Z,7.97
2023-04-14T11:09:27.709Z,6.60
2023-04-14T11:11:57.652Z,9.77
2023-04-14T11:14:31.473Z,4.93
2023-04-14T11:17:03.960Z,5.93
2023-04-14T11:19:33.767Z,5.43
2023-04-14T11:22:01.891Z,4.50
2023-04-14T11:24:32.564Z,4.22
2023-04-14T11:27:00.608Z,8.57
2023-04-14T11:29:31.557Z,8.38
2023-04-14T11:32:04.100Z,4.47
2023-04-14T11:34:32.911Z,6.47
2023-04-14T11:37:03.706Z,6.85
2023-04-14T11:39:35.651Z,6.57
2023-04-14T11:42:05.320Z,5.70
2023-04-14T11:44:33.841Z,7.82
2023-04-14T11:47:01.901Z,5.13
2023-04-14T11:49:36.593Z,6.95
2023-04-14T11:52:10.543Z,5.68
2023-04-14T11:54:40.712Z,3.95
2023-04-14T11:57:12.304Z,4.38
2023-04-14T11:59:44.561Z,6.05
2023-04-14T12:02:18.417Z,8.55
2023-04-14T12:04:49.358Z,7.13
2023-04-14T12:07:20.107Z,6.82
2023-04-14T12:09:50.590Z,4.65
2023-04-14T12:12:20.097Z,5.18
2023-04-14T12:14:49.783Z,7.18
2023-04-14T12:17:20.399Z,4.45
2023-04-14T12:19:48.933Z,4.40
2023-04-14T12:22:25.020Z,5.47
2023-04-14T12:24:54.988Z,4.18
2023-04-14T12:27:24.635Z,2.92
2023-04-14T12:29:53.336Z,4.70
2023-04-14T12:32:22.887Z,6.10
2023-04-14T12:34:57.466Z,4.35
2023-04-14T12:37:27.512Z,6.10
2023-04-14T12:39:59.434Z,4.30
2023-04-14T12:42:28.506Z,6.03
2023-04-14T12:44:58.918Z,5.00
2023-04-14T12:47:31.267Z,4.70
2023-04-14T12:50:00.525Z,6.40
2023-04-14T12:52:37.037Z,7.55
2023-04-14T12:55:08.755Z,6.60
2023-04-14T12:57:37.284Z,6.47
2023-04-14T13:00:05.950Z,4.88
2023-04-14T13:02:35.918Z,4.70
2023-04-14T13:05:04.981Z,7.97
2023-04-14T13:07:33.087Z,5.50
2023-04-14T13:10:01.406Z,8.98
2023-04-14T13:12:30.716Z,10.00
2023-04-14T13:14:58.654Z,5.38
2023-04-14T13:17:27.578Z,3.08
2023-04-14T13:19:57.009Z,5.28
2023-04-14T13:22:25.432Z,5.47
2023-04-14T13:24:53.489Z,4.45
2023-04-14T13:27:21.460Z,6.15
2023-04-14T13:29:50.815Z,5.38
2023-04-14T13:32:19.102Z,6.28
2023-04-14T13:34:48.101Z,6.05
2023-04-14T13:37:17.965Z,2.95
2023-04-14T13:39:46.212Z,6.40
2023-04-14T13:42:15.251Z,7.97
2023-04-14T13:44:43.180Z,3.45
2023-04-14T13:47:12.543Z,4.47
2023-04-14T13:49:40.473Z,6.80
2023-04-14T13:52:09.415Z,6.45
2023-04-14T13:54:37.353Z,5.65
2023-04-14T13:57:05.333Z,7.93
2023-04-14T13:59:33.378Z,4.75
2023-04-14T14:02:01.457Z,3.85
2023-04-14T14:04:31.174Z,3.97
2023-04-14T14:06:59.130Z,9.88
2023-04-14T14:09:27.617Z,5.20
2023-04-14T14:11:56.067Z,4.95
2023-04-14T14:14:24.191Z,3.60
2023-04-14T14:16:52.192Z,7.63
2023-04-14T14:19:20.279Z,7.03
2023-04-14T14:21:49.809Z,5.55
2023-04-14T14:24:17.913Z,5.57
2023-04-14T14:26:45.927Z,4.03
2023-04-14T14:29:14.012Z,6.22
2023-04-14T14:31:42.222Z,6.80
2023-04-14T14:34:10.460Z,5.03
2023-04-14T14:36:38.500Z,7.07
2023-04-14T14:39:09.132Z,8.38
2023-04-14T14:41:37.481Z,4.82
2023-04-14T14:46:34.568Z,4.85
2023-04-14T14:49:02.645Z,5.22
2023-04-14T14:51:31.925Z,7.65
2023-04-14T14:54:09.183Z,4.45
2023-04-14T14:56:39.482Z,5.35
2023-04-14T14:59:08.527Z,4.95
2023-04-14T15:01:36.868Z,4.43
2023-04-14T15:04:06.520Z,5.53
2023-04-14T15:06:35.924Z,4.30
2023-04-14T15:09:05.402Z,4.13
2023-04-14T15:11:33.476Z,6.95
2023-04-14T15:14:03.432Z,7.18
2023-04-14T15:16:31.711Z,6.22
2023-04-14T15:18:59.619Z,313.15
2023-04-14T15:21:27.647Z,252.07
2023-04-14T15:23:55.743Z,136.98
2023-04-14T15:26:23.798Z,86.43
2023-04-14T15:28:51.826Z,55.75
2023-04-14T15:31:21.229Z,44.67
2023-04-14T15:33:49.252Z,33.20
2023-04-14T15:36:17.221Z,29.50
2023-04-14T15:38:49.818Z,23.70
2023-04-14T15:41:17.747Z,14.35
2023-04-14T15:43:45.805Z,11.90
2023-04-14T15:46:14.886Z,13.60
2023-04-14T15:48:44.460Z,13.85
2023-04-14T15:51:12.579Z,17.52
2023-04-14T15:53:40.406Z,11.73
2023-04-14T15:56:08.413Z,14.15
2023-04-14T15:58:36.929Z,9.90
2023-04-14T16:01:08.157Z,16.33
2023-04-14T16:03:37.042Z,13.23
2023-04-14T16:06:08.421Z,14.95
2023-04-14T16:08:36.642Z,8.63
2023-04-14T16:11:04.940Z,12.35
2023-04-14T16:13:32.877Z,9.73
2023-04-14T16:16:01.193Z,9.20
2023-04-14T16:18:29.219Z,10.68
2023-04-14T16:20:57.257Z,9.50
2023-04-14T16:23:28.739Z,11.95
2023-04-14T16:25:57.578Z,9.85
2023-04-14T16:28:25.808Z,7.25
2023-04-14T16:30:55.186Z,8.68
2023-04-14T16:33:23.209Z,9.05
2023-04-14T16:35:51.140Z,11.73
2023-04-14T16:38:19.029Z,8.30
2023-04-14T16:40:55.608Z,6.50
2023-04-14T16:43:23.716Z,8.70
2023-04-14T16:45:52.390Z,6.63
2023-04-14T16:48:20.488Z,7.07
2023-04-14T16:50:48.622Z,6.90
2023-04-14T16:53:16.901Z,4.32
2023-04-14T16:55:45.282Z,6.03
2023-04-14T16:58:14.770Z,5.13
2023-04-14T17:00:43.326Z,7.68
2023-04-14T17:03:11.691Z,8.60
2023-04-14T17:05:39.826Z,8.65
2023-04-14T17:08:07.797Z,9.40
2023-04-14T17:10:35.764Z,5.30
2023-04-14T17:13:03.980Z,7.85
2023-04-14T17:15:33.332Z,6.00
2023-04-14T17:18:01.455Z,7.80
2023-04-14T17:20:30.328Z,6.45
2023-04-14T17:23:00.291Z,6.45
2023-04-14T17:25:28.706Z,7.00
2023-04-14T17:27:56.916Z,6.18
2023-04-14T17:30:26.197Z,8.18
2023-04-14T17:32:56.336Z,5.40
2023-04-14T17:35:24.364Z,6.70
2023-04-14T17:37:52.819Z,4.63
2023-04-14T17:40:20.831Z,4.95
2023-04-14T17:42:48.865Z,5.45
2023-04-14T17:45:22.956Z,7.95
2023-04-14T17:47:51.367Z,8.20
2023-04-14T17:50:21.133Z,7.97
2023-04-14T17:52:51.056Z,5.90
2023-04-14T17:55:19.460Z,7.32
2023-04-14T17:57:47.590Z,7.22
2023-04-14T18:00:17.008Z,7.07
2023-04-14T18:02:45.264Z,3.97
2023-04-14T18:05:14.057Z,4.53
2023-04-14T18:07:44.283Z,8.23
2023-04-14T18:10:12.368Z,4.68
2023-04-14T18:12:40.363Z,4.75
2023-04-14T18:15:12.000Z,5.20
2023-04-14T18:17:39.988Z,4.43
2023-04-14T18:20:10.735Z,6.28
2023-04-14T18:22:38.994Z,3.65
2023-04-14T18:25:09.698Z,7.78
2023-04-14T18:30:10.669Z,3.13
2023-04-14T18:32:38.716Z,6.70
2023-04-14T18:35:07.495Z,6.20
2023-04-14T18:37:36.045Z,8.05
2023-04-14T18:40:04.466Z,7.68
2023-04-14T18:42:35.893Z,3.58
2023-04-14T18:45:04.374Z,6.65
2023-04-14T18:47:33.204Z,3.88
2023-04-14T18:50:01.447Z,8.68
2023-04-14T18:52:29.416Z,5.28
2023-04-14T18:54:57.700Z,5.55
2023-04-14T18:57:25.767Z,7.55
2023-04-14T18:59:55.151Z,6.10
2023-04-14T19:02:23.386Z,5.47
2023-04-14T19:04:51.648Z,3.53
2023-04-14T19:07:19.778Z,6.07
2023-04-14T19:09:47.727Z,6.57
2023-04-14T19:12:27.711Z,5.75
2023-04-14T19:14:57.848Z,3.67
2023-04-14T19:17:26.096Z,6.50
2023-04-14T19:19:54.057Z,3.10
2023-04-14T19:22:22.197Z,3.70
2023-04-14T19:24:51.136Z,8.32
2023-04-14T19:27:19.339Z,3.22
2023-04-14T19:29:47.517Z,6.30
2023-04-14T19:32:17.146Z,3.72
2023-04-14T19:34:45.189Z,5.60
2023-04-14T19:37:13.565Z,4.22
2023-04-14T19:39:41.576Z,6.40
2023-04-14T19:42:09.610Z,4.60
2023-04-14T19:44:37.515Z,5.53
2023-04-14T19:47:05.990Z,8.43
2023-04-14T19:49:35.562Z,5.78
2023-04-14T19:52:04.721Z,5.70
2023-04-14T19:54:32.775Z,8.73
2023-04-14T19:57:00.806Z,5.85
2023-04-14T19:59:29.444Z,7.30
2023-04-14T20:01:57.534Z,7.13
2023-04-14T20:04:25.764Z,6.53
2023-04-14T20:06:55.938Z,4.30
2023-04-14T20:09:24.470Z,5.97
2023-04-14T20:11:52.553Z,6.65
2023-04-14T20:14:20.477Z,4.43
2023-04-14T20:16:48.533Z,3.42
2023-04-14T20:19:18.799Z,9.05
2023-04-14T20:21:46.731Z,5.55
2023-04-14T20:24:16.071Z,4.55
2023-04-14T20:26:44.958Z,5.32
2023-04-14T20:29:13.159Z,7.35
2023-04-14T20:31:42.691Z,5.25
2023-04-14T20:34:12.100Z,5.82
2023-04-14T20:36:40.194Z,7.13
2023-04-14T20:39:08.445Z,11.48
2023-04-14T20:41:38.113Z,6.13
2023-04-14T20:44:06.251Z,4.20
2023-04-14T20:46:34.491Z,8.05
2023-04-14T20:49:02.663Z,4.00
2023-04-14T20:51:32.240Z,7.43
2023-04-14T20:54:01.835Z,4.88
2023-04-14T20:56:30.813Z,3.15
2023-04-14T20:59:00.613Z,4.53
2023-04-14T21:01:28.816Z,6.00
2023-04-14T21:03:57.241Z,4.82
2023-04-14T21:06:25.848Z,6.50
2023-04-14T21:08:53.821Z,5.57
2023-04-14T21:11:21.876Z,3.75
2023-04-14T21:15:45.553Z,5.97
2023-04-14T21:16:39.434Z,5.25
2023-04-14T21:19:07.462Z,7.72
2023-04-14T21:21:35.515Z,6.10
2023-04-14T21:24:03.524Z,4.63
2023-04-14T21:26:31.712Z,7.68
2023-04-14T21:28:59.864Z,7.68
2023-04-14T21:31:28.426Z,6.22
2023-04-14T21:33:57.985Z,5.72
2023-04-14T21:36:25.959Z,5.45
2023-04-14T21:38:53.880Z,6.40
2023-04-14T21:41:22.029Z,8.23
2023-04-14T21:43:50.014Z,5.35
2023-04-14T21:46:18.089Z,5.65
2023-04-14T21:48:46.210Z,5.40
2023-04-14T21:51:15.852Z,6.68
2023-04-14T21:53:43.840Z,7.15
2023-04-14T21:56:12.909Z,4.95
2023-04-14T21:58:41.010Z,4.65
2023-04-14T22:01:10.350Z,3.45
2023-04-14T22:03:41.219Z,4.43
2023-04-14T22:06:11.258Z,4.90
2023-04-14T22:08:41.798Z,5.43
2023-04-14T22:11:09.888Z,3.35
2023-04-14T22:13:38.004Z,7.32
2023-04-14T22:16:06.612Z,5.20
2023-04-14T22:18:35.804Z,3.50
2023-04-14T22:21:04.840Z,3.30
2023-04-14T22:23:33.041Z,3.50
2023-04-14T22:26:03.560Z,7.32
2023-04-14T22:28:31.758Z,4.13
2023-04-14T22:30:59.702Z,6.90
2023-04-14T22:33:27.693Z,3.33
2023-04-14T22:35:55.622Z,5.63
2023-04-14T22:38:23.606Z,4.47
2023-04-14T22:40:52.674Z,4.60
2023-04-14T22:43:22.306Z,3.63
2023-04-14T22:45:51.010Z,3.10
2023-04-14T22:48:18.971Z,4.00
2023-04-14T22:50:47.104Z,3.47
2023-04-14T22:53:15.215Z,7.20
2023-04-14T22:55:44.066Z,6.00
2023-04-14T22:58:16.742Z,4.45
2023-04-14T23:00:46.953Z,6.03
2023-04-14T23:03:15.421Z,7.25
2023-04-14T23:05:44.641Z,7.82
2023-04-14T23:08:12.763Z,7.97
2023-04-14T23:10:40.676Z,4.68
2023-04-14T23:13:08.673Z,5.65
2023-04-14T23:15:36.847Z,5.90
2023-04-14T23:18:06.499Z,11.60
2023-04-14T23:20:34.578Z,6.07
2023-04-14T23:23:02.692Z,3.58
2023-04-14T23:25:30.908Z,5.78
2023-04-14T23:27:58.927Z,5.72
2023-04-14T23:30:27.520Z,4.55
2023-04-14T23:32:55.456Z,4.43
2023-04-14T23:35:24.934Z,6.82
2023-04-14T23:37:53.148Z,9.10
2023-04-14T23:40:21.378Z,4.25
2023-04-14T23:42:49.377Z,5.63
2023-04-14T23:45:17.355Z,6.72
2023-04-14T23:47:45.408Z,3.42
2023-04-14T23:50:13.357Z,7.00
2023-04-14T23:52:42.800Z,5.75
2023-04-14T23:55:10.973Z,3.75
2023-04-14T23:57:39.056Z,5.03
